createdAt,value
2022-07-30T00:00:10.648Z,2.50
2022-07-30T00:03:12.574Z,2.30
2022-07-30T00:05:55.059Z,3.70
2022-07-30T00:08:37.017Z,2.60
2022-07-30T00:11:18.913Z,2.60
2022-07-30T00:14:01.322Z,3.20
2022-07-30T00:16:43.274Z,2.70
2022-07-30T00:19:25.215Z,3.00
2022-07-30T00:22:08.339Z,2.80
2022-07-30T00:24:50.235Z,3.70
2022-07-30T00:27:35.033Z,2.90
2022-07-30T00:30:17.099Z,2.80
2022-07-30T00:32:58.994Z,3.00
2022-07-30T00:35:41.093Z,2.90
2022-07-30T00:38:22.990Z,3.10
2022-07-30T00:41:04.885Z,3.10
2022-07-30T00:43:46.784Z,2.80
2022-07-30T00:46:28.577Z,3.10
2022-07-30T00:49:10.516Z,2.70
2022-07-30T00:51:56.158Z,3.40
2022-07-30T00:54:38.052Z,3.10
2022-07-30T00:57:19.945Z,3.30
2022-07-30T01:00:01.944Z,3.20
2022-07-30T01:02:44.556Z,3.20
2022-07-30T01:05:26.451Z,3.60
2022-07-30T01:08:08.348Z,3.00
2022-07-30T01:10:50.242Z,3.20
2022-07-30T01:13:33.162Z,3.50
2022-07-30T01:16:15.508Z,3.10
2022-07-30T01:19:18.356Z,3.30
2022-07-30T01:22:31.235Z,3.40
2022-07-30T01:25:32.323Z,3.90
2022-07-30T01:28:18.535Z,3.60
2022-07-30T01:31:03.180Z,3.50
2022-07-30T01:33:47.523Z,3.50
2022-07-30T01:36:30.914Z,3.10
2022-07-30T01:39:15.177Z,3.10
2022-07-30T01:41:58.239Z,3.60
2022-07-30T01:44:42.525Z,3.80
2022-07-30T01:47:25.562Z,3.50
2022-07-30T01:50:13.845Z,3.20
2022-07-30T01:52:57.598Z,3.50
2022-07-30T01:55:42.872Z,4.10
2022-07-30T01:58:28.220Z,3.60
2022-07-30T02:01:12.850Z,3.70
2022-07-30T02:03:55.051Z,3.30
2022-07-30T02:07:01.633Z,3.00
2022-07-30T02:09:53.961Z,3.90
2022-07-30T02:12:43.399Z,3.80
2022-07-30T02:15:35.164Z,3.70
2022-07-30T02:18:45.488Z,3.90
2022-07-30T02:21:37.174Z,3.50
2022-07-30T02:24:27.506Z,3.40
2022-07-30T02:27:31.316Z,3.80
2022-07-30T02:30:15.573Z,3.80
2022-07-30T02:33:10.678Z,3.70
2022-07-30T02:35:54.513Z,3.40
2022-07-30T02:38:41.441Z,3.50
2022-07-30T02:41:26.966Z,4.10
2022-07-30T02:44:10.331Z,3.60
2022-07-30T02:46:55.216Z,3.50
2022-07-30T02:49:56.315Z,3.60
2022-07-30T02:52:40.501Z,3.40
2022-07-30T02:55:24.151Z,3.50
2022-07-30T02:58:07.877Z,3.50
2022-07-30T03:00:52.431Z,3.50
2022-07-30T03:03:37.196Z,3.60
2022-07-30T03:06:20.730Z,3.40
2022-07-30T03:09:04.766Z,3.50
2022-07-30T03:11:49.989Z,3.20
2022-07-30T03:14:32.457Z,3.10
2022-07-30T03:17:16.504Z,3.30
2022-07-30T03:20:01.373Z,3.80
2022-07-30T03:22:47.685Z,3.20
2022-07-30T03:25:31.101Z,3.20
2022-07-30T03:28:15.658Z,3.30
2022-07-30T03:30:58.655Z,3.20
2022-07-30T03:33:41.249Z,3.10
2022-07-30T03:36:24.213Z,3.10
2022-07-30T03:39:07.441Z,3.90
2022-07-30T03:41:50.667Z,3.60
2022-07-30T03:44:34.303Z,3.50
2022-07-30T03:47:17.689Z,3.90
2022-07-30T03:50:02.398Z,3.30
2022-07-30T03:52:45.828Z,3.20
2022-07-30T03:55:31.614Z,3.70
2022-07-30T03:58:35.851Z,4.40
2022-07-30T04:01:19.843Z,3.30
2022-07-30T04:04:07.655Z,3.90
2022-07-30T04:06:49.916Z,4.00
2022-07-30T04:09:33.348Z,3.70
2022-07-30T04:12:23.334Z,4.00
2022-07-30T04:16:38.276Z,3.70
2022-07-30T04:18:11.599Z,3.50
2022-07-30T04:20:55.030Z,3.30
2022-07-30T04:24:04.660Z,4.80
2022-07-30T04:26:41.965Z,3.40
2022-07-30T04:29:24.841Z,3.80
2022-07-30T04:32:08.969Z,3.70
2022-07-30T04:35:10.284Z,3.20
2022-07-30T04:38:14.231Z,3.20
2022-07-30T04:40:57.319Z,3.30
2022-07-30T04:43:39.419Z,3.40
2022-07-30T04:46:24.550Z,3.30
2022-07-30T04:49:07.041Z,3.30
2022-07-30T04:51:49.508Z,2.90
2022-07-30T04:54:40.597Z,3.50
2022-07-30T04:57:24.975Z,3.50
2022-07-30T05:00:07.489Z,3.30
2022-07-30T05:02:52.124Z,2.60
2022-07-30T05:05:36.353Z,3.70
2022-07-30T05:08:19.212Z,3.40
2022-07-30T05:11:01.416Z,3.40
2022-07-30T05:13:48.576Z,2.90
2022-07-30T05:19:18.967Z,3.30
2022-07-30T05:22:06.221Z,3.20
2022-07-30T05:24:49.020Z,3.50
2022-07-30T05:27:31.018Z,3.70
2022-07-30T05:30:13.427Z,3.50
2022-07-30T05:32:58.494Z,3.80
2022-07-30T05:35:43.777Z,3.70
2022-07-30T05:38:25.666Z,4.10
2022-07-30T05:41:32.570Z,3.70
2022-07-30T05:44:15.161Z,3.40
2022-07-30T05:46:57.131Z,3.70
2022-07-30T05:49:39.263Z,3.80
2022-07-30T05:52:24.125Z,3.90
2022-07-30T05:55:10.322Z,3.50
2022-07-30T05:58:08.702Z,3.60
2022-07-30T06:00:50.702Z,3.20
2022-07-30T06:03:34.979Z,3.80
2022-07-30T06:06:43.164Z,3.60
2022-07-30T06:09:36.110Z,3.50
2022-07-30T06:12:20.165Z,3.60
2022-07-30T06:15:02.474Z,3.70
2022-07-30T06:17:51.091Z,3.60
2022-07-30T06:21:13.776Z,3.10
2022-07-30T06:24:17.281Z,3.20
2022-07-30T06:27:05.300Z,3.70
2022-07-30T06:29:47.320Z,3.80
2022-07-30T06:32:30.543Z,3.80
2022-07-30T06:35:12.440Z,3.70
2022-07-30T06:37:58.703Z,3.90
2022-07-30T06:40:50.157Z,3.90
2022-07-30T06:43:36.661Z,4.10
2022-07-30T06:46:36.054Z,3.60
2022-07-30T06:49:18.621Z,3.60
2022-07-30T06:52:01.292Z,3.90
2022-07-30T06:54:43.289Z,3.40
2022-07-30T06:57:31.061Z,4.00
2022-07-30T07:00:17.919Z,4.00
2022-07-30T07:03:00.960Z,3.50
2022-07-30T07:05:51.353Z,3.80
2022-07-30T07:08:36.528Z,3.60
2022-07-30T07:11:18.423Z,3.60
2022-07-30T07:14:04.893Z,3.60
2022-07-30T07:16:50.355Z,3.50
2022-07-30T07:20:01.195Z,3.70
2022-07-30T07:22:45.340Z,3.40
2022-07-30T07:25:28.063Z,3.40
2022-07-30T07:28:11.921Z,3.60
2022-07-30T07:30:57.598Z,3.80
2022-07-30T07:33:40.895Z,2.80
2022-07-30T07:36:23.508Z,4.10
2022-07-30T07:39:10.018Z,3.10
2022-07-30T07:41:56.618Z,3.10
2022-07-30T07:44:39.641Z,3.30
2022-07-30T07:47:21.536Z,3.50
2022-07-30T07:50:18.688Z,3.70
2022-07-30T07:53:01.406Z,3.60
2022-07-30T07:55:43.197Z,3.00
2022-07-30T07:58:27.452Z,3.30
2022-07-30T08:01:12.893Z,3.60
2022-07-30T08:04:14.079Z,3.60
2022-07-30T08:07:14.709Z,3.50
2022-07-30T08:09:56.912Z,3.40
2022-07-30T08:12:41.370Z,3.60
2022-07-30T08:15:55.417Z,3.40
2022-07-30T08:19:03.528Z,3.90
2022-07-30T08:21:53.103Z,3.50
2022-07-30T08:24:35.309Z,3.00
2022-07-30T08:27:17.858Z,3.80
2022-07-30T08:30:06.768Z,3.70
2022-07-30T08:32:48.813Z,4.10
2022-07-30T08:35:31.081Z,4.30
2022-07-30T08:38:13.934Z,4.10
2022-07-30T08:40:56.613Z,4.50
2022-07-30T08:43:39.847Z,4.40
2022-07-30T08:46:25.525Z,4.00
2022-07-30T08:49:15.977Z,4.30
2022-07-30T08:51:58.125Z,4.10
2022-07-30T08:54:55.481Z,4.50
2022-07-30T08:57:37.788Z,4.40
2022-07-30T09:00:21.410Z,3.80
2022-07-30T09:03:05.708Z,4.00
2022-07-30T09:05:48.169Z,3.90
2022-07-30T09:08:32.239Z,3.40
2022-07-30T09:11:14.443Z,3.50
2022-07-30T09:14:10.873Z,3.60
2022-07-30T09:16:58.697Z,3.40
2022-07-30T09:19:40.702Z,3.10
2022-07-30T09:22:22.598Z,2.80
2022-07-30T09:25:33.371Z,3.00
2022-07-30T09:28:35.236Z,3.30
2022-07-30T09:34:47.870Z,2.90
2022-07-30T09:38:06.459Z,3.00
2022-07-30T09:41:17.237Z,2.70
2022-07-30T09:44:30.161Z,2.50
2022-07-30T09:47:34.443Z,3.30
2022-07-30T09:50:29.910Z,2.90
2022-07-30T09:53:13.186Z,2.60
2022-07-30T09:55:58.357Z,2.50
2022-07-30T09:58:45.430Z,2.20
2022-07-30T10:01:49.531Z,2.80
2022-07-30T10:04:49.922Z,2.20
2022-07-30T10:07:32.225Z,2.30
2022-07-30T10:10:31.114Z,2.40
2022-07-30T10:13:16.895Z,2.10
2022-07-30T10:16:02.063Z,2.30
2022-07-30T10:18:44.079Z,2.20
2022-07-30T10:21:53.701Z,2.00
2022-07-30T10:24:54.768Z,2.30
2022-07-30T10:28:00.421Z,2.30
2022-07-30T10:30:50.399Z,2.50
2022-07-30T10:33:36.236Z,2.10
2022-07-30T10:36:21.051Z,2.00
2022-07-30T10:39:08.177Z,1.90
2022-07-30T10:42:17.310Z,2.00
2022-07-30T10:45:23.274Z,2.20
2022-07-30T10:48:05.677Z,2.00
2022-07-30T10:50:54.948Z,2.80
2022-07-30T10:53:48.758Z,2.00
2022-07-30T10:56:31.128Z,2.20
2022-07-30T10:59:13.063Z,2.10
2022-07-30T11:02:00.039Z,2.10
2022-07-30T11:04:45.211Z,2.10
2022-07-30T11:07:29.095Z,2.10
2022-07-30T11:10:44.012Z,1.80
2022-07-30T11:13:52.032Z,1.90
2022-07-30T11:16:35.482Z,2.10
2022-07-30T11:19:55.709Z,1.80
2022-07-30T11:22:32.978Z,2.10
2022-07-30T11:25:49.956Z,2.00
2022-07-30T11:28:43.331Z,2.40
2022-07-30T11:31:49.892Z,2.20
2022-07-30T11:34:29.237Z,1.90
2022-07-30T11:37:22.442Z,2.00
2022-07-30T11:40:14.534Z,2.50
2022-07-30T11:43:34.495Z,2.30
2022-07-30T11:46:28.803Z,2.50
2022-07-30T11:49:11.694Z,2.90
2022-07-30T11:51:53.668Z,2.60
2022-07-30T11:54:54.261Z,3.20
2022-07-30T11:57:43.529Z,2.90
2022-07-30T12:00:26.449Z,2.50
2022-07-30T12:03:13.670Z,2.50
2022-07-30T12:05:56.283Z,2.90
2022-07-30T12:08:45.550Z,2.90
2022-07-30T12:11:35.436Z,3.40
2022-07-30T12:14:17.329Z,3.20
2022-07-30T12:17:00.278Z,3.60
2022-07-30T12:19:48.975Z,3.40
2022-07-30T12:22:33.665Z,3.70
2022-07-30T12:25:15.801Z,3.90
2022-07-30T12:27:57.866Z,7.50
2022-07-30T12:30:41.270Z,13.20
2022-07-30T12:33:24.325Z,10.00
2022-07-30T12:36:06.522Z,6.50
2022-07-30T12:38:50.774Z,4.70
2022-07-30T12:41:58.781Z,4.10
2022-07-30T12:44:42.930Z,4.80
2022-07-30T12:47:34.905Z,4.00
2022-07-30T12:50:17.578Z,3.60
2022-07-30T12:52:59.608Z,5.10
2022-07-30T12:55:42.018Z,4.20
2022-07-30T12:58:23.979Z,4.10
2022-07-30T13:01:06.341Z,4.80
2022-07-30T13:03:48.384Z,4.40
2022-07-30T13:06:30.486Z,3.40
2022-07-30T13:09:20.394Z,3.30
2022-07-30T13:12:20.895Z,2.90
2022-07-30T13:15:31.512Z,3.40
2022-07-30T13:18:19.931Z,3.20
2022-07-30T13:21:10.094Z,3.40
2022-07-30T13:24:07.966Z,3.00
2022-07-30T13:26:59.360Z,3.70
2022-07-30T13:29:48.187Z,6.40
2022-07-30T13:32:37.596Z,4.10
2022-07-30T13:35:30.319Z,4.30
2022-07-30T13:38:20.491Z,4.40
2022-07-30T13:41:06.375Z,7.50
2022-07-30T13:43:50.025Z,7.00
2022-07-30T13:46:35.174Z,8.40
2022-07-30T13:49:19.101Z,8.00
2022-07-30T13:52:01.982Z,7.10
2022-07-30T13:54:45.562Z,5.90
2022-07-30T13:57:27.560Z,8.50
2022-07-30T14:00:10.583Z,4.40
2022-07-30T14:02:53.093Z,5.00
2022-07-30T14:05:42.194Z,8.90
2022-07-30T14:08:25.627Z,9.20
2022-07-30T14:11:08.627Z,5.80
2022-07-30T14:13:50.812Z,6.40
2022-07-30T14:16:47.829Z,6.10
2022-07-30T14:19:29.861Z,4.90
2022-07-30T14:22:11.861Z,5.60
2022-07-30T14:24:53.756Z,4.80
2022-07-30T14:27:36.572Z,4.60
2022-07-30T14:30:18.469Z,4.90
2022-07-30T14:33:04.347Z,4.90
2022-07-30T14:35:46.663Z,4.50
2022-07-30T14:38:32.560Z,3.90
2022-07-30T14:41:15.166Z,4.20
2022-07-30T14:43:57.265Z,3.70
2022-07-30T14:46:51.686Z,4.10
2022-07-30T14:49:41.946Z,3.70
2022-07-30T14:52:23.841Z,4.50
2022-07-30T14:55:09.325Z,4.50
2022-07-30T14:57:51.424Z,4.50
2022-07-30T15:00:34.912Z,4.20
2022-07-30T15:03:34.177Z,5.00
2022-07-30T15:06:21.643Z,4.40
2022-07-30T15:09:06.728Z,4.60
2022-07-30T15:12:09.037Z,4.40
2022-07-30T15:14:56.680Z,6.80
2022-07-30T15:17:42.023Z,8.60
2022-07-30T15:20:24.378Z,8.30
2022-07-30T15:23:08.439Z,7.30
2022-07-30T15:25:54.099Z,4.60
2022-07-30T15:28:36.686Z,4.60
2022-07-30T15:31:26.251Z,4.70
2022-07-30T15:34:13.175Z,3.70
2022-07-30T15:36:55.479Z,4.10
2022-07-30T15:39:37.373Z,4.40
2022-07-30T15:42:19.577Z,4.30
2022-07-30T15:45:19.593Z,4.40
2022-07-30T15:48:02.107Z,6.00
2022-07-30T15:50:44.764Z,4.60
2022-07-30T15:53:28.386Z,4.90
2022-07-30T15:56:10.971Z,4.90
2022-07-30T15:58:53.275Z,4.70
2022-07-30T16:01:35.168Z,4.90
2022-07-30T16:04:18.959Z,4.80
2022-07-30T16:07:03.445Z,5.90
2022-07-30T16:09:45.363Z,6.20
2022-07-30T16:12:27.267Z,6.90
2022-07-30T16:15:09.874Z,5.70
2022-07-30T16:17:52.074Z,5.70
2022-07-30T16:20:35.204Z,5.10
2022-07-30T16:23:21.302Z,4.70
2022-07-30T16:26:04.112Z,5.60
2022-07-30T16:28:46.109Z,6.30
2022-07-30T16:31:28.523Z,9.10
2022-07-30T16:34:11.843Z,6.00
2022-07-30T16:36:54.149Z,8.60
2022-07-30T16:39:36.045Z,10.00
2022-07-30T16:42:18.044Z,8.20
2022-07-30T16:44:59.837Z,9.80
2022-07-30T16:47:41.733Z,8.00
2022-07-30T16:50:23.627Z,7.60
2022-07-30T16:53:09.447Z,9.20
2022-07-30T16:55:53.767Z,7.10
2022-07-30T16:58:35.700Z,5.40
2022-07-30T17:01:17.715Z,5.40
2022-07-30T17:03:59.659Z,8.60
2022-07-30T17:06:42.784Z,12.60
2022-07-30T17:09:24.884Z,11.10
2022-07-30T17:12:12.318Z,9.40
2022-07-30T17:14:54.524Z,6.80
2022-07-30T17:17:36.306Z,16.80
2022-07-30T17:20:18.306Z,9.70
2022-07-30T17:23:00.507Z,8.40
2022-07-30T17:25:42.405Z,8.60
2022-07-30T17:28:26.949Z,7.90
2022-07-30T17:31:09.369Z,7.50
2022-07-30T17:33:51.367Z,8.40
2022-07-30T17:36:33.262Z,8.90
2022-07-30T17:40:04.234Z,12.70
2022-07-30T17:42:18.558Z,19.40
2022-07-30T17:45:01.512Z,28.50
2022-07-30T17:47:43.374Z,19.70
2022-07-30T17:50:25.372Z,17.40
2022-07-30T17:53:07.165Z,9.70
2022-07-30T17:55:57.771Z,9.70
2022-07-30T17:58:40.172Z,7.50
2022-07-30T18:01:22.132Z,8.40
2022-07-30T18:04:05.028Z,8.20
2022-07-30T18:06:47.108Z,6.90
2022-07-30T18:09:30.419Z,7.60
2022-07-30T18:12:25.241Z,9.80
2022-07-30T18:15:10.251Z,6.60
2022-07-30T18:17:55.184Z,8.00
2022-07-30T18:20:48.164Z,7.60
2022-07-30T18:23:34.637Z,7.20
2022-07-30T18:26:17.326Z,6.40
2022-07-30T18:28:59.529Z,7.10
2022-07-30T18:31:43.981Z,6.50
2022-07-30T18:34:26.493Z,7.30
2022-07-30T18:37:08.595Z,7.80
2022-07-30T18:39:50.595Z,8.10
2022-07-30T18:42:33.309Z,7.20
2022-07-30T18:45:16.124Z,8.10
2022-07-30T18:47:58.327Z,8.00
2022-07-30T18:50:40.738Z,7.10
2022-07-30T18:53:22.632Z,7.20
2022-07-30T18:56:05.281Z,7.10
2022-07-30T18:58:47.855Z,9.90
2022-07-30T19:01:30.108Z,9.50
2022-07-30T19:04:12.261Z,8.10
2022-07-30T19:06:54.242Z,8.60
2022-07-30T19:09:36.873Z,7.50
2022-07-30T19:12:18.701Z,7.10
2022-07-30T19:15:01.641Z,6.90
2022-07-30T19:17:45.372Z,7.60
2022-07-30T19:20:28.864Z,7.30
2022-07-30T19:23:10.754Z,7.50
2022-07-30T19:25:52.650Z,9.00
2022-07-30T19:28:36.593Z,7.40
2022-07-30T19:31:19.717Z,8.00
2022-07-30T19:34:01.614Z,8.00
2022-07-30T19:36:43.406Z,7.50
2022-07-30T19:39:25.712Z,7.40
2022-07-30T19:42:11.664Z,7.40
2022-07-30T19:44:55.444Z,7.80
2022-07-30T19:47:42.630Z,8.40
2022-07-30T19:50:27.236Z,8.60
2022-07-30T19:53:09.343Z,8.30
2022-07-30T19:55:51.993Z,9.40
2022-07-30T19:58:37.284Z,8.70
2022-07-30T20:01:20.128Z,8.50
2022-07-30T20:04:04.997Z,8.70
2022-07-30T20:06:49.569Z,8.10
2022-07-30T20:09:31.384Z,8.60
2022-07-30T20:12:14.777Z,8.60
2022-07-30T20:14:56.673Z,8.70
2022-07-30T20:17:38.876Z,9.10
2022-07-30T20:20:26.525Z,8.00
2022-07-30T20:23:08.949Z,8.60
2022-07-30T20:25:52.486Z,8.70
2022-07-30T20:28:37.606Z,8.20
2022-07-30T20:31:24.862Z,8.60
2022-07-30T20:34:17.831Z,8.40
2022-07-30T20:37:13.873Z,8.30
2022-07-30T20:40:06.092Z,8.60
2022-07-30T20:42:48.161Z,9.10
2022-07-30T20:45:40.719Z,7.90
2022-07-30T20:48:28.979Z,8.10
2022-07-30T20:51:10.948Z,8.00
2022-07-30T20:53:52.952Z,6.70
2022-07-30T20:56:34.842Z,9.40
2022-07-30T20:59:21.897Z,11.00
2022-07-30T21:02:06.416Z,9.10
2022-07-30T21:04:56.667Z,9.40
2022-07-30T21:07:41.575Z,7.80
2022-07-30T21:10:26.647Z,8.70
2022-07-30T21:13:08.644Z,8.30
2022-07-30T21:16:02.472Z,8.10
2022-07-30T21:18:50.067Z,8.00
2022-07-30T21:21:41.866Z,8.90
2022-07-30T21:24:30.325Z,10.60
2022-07-30T21:27:13.274Z,11.00
2022-07-30T21:29:56.061Z,8.90
2022-07-30T21:32:37.957Z,9.00
2022-07-30T21:35:20.160Z,9.20
2022-07-30T21:38:02.465Z,8.40
2022-07-30T21:40:45.079Z,8.70
2022-07-30T21:43:29.576Z,8.40
2022-07-30T21:46:13.992Z,8.10
2022-07-30T21:48:58.507Z,7.60
2022-07-30T21:51:41.574Z,7.70
2022-07-30T21:57:30.195Z,7.70
2022-07-30T22:00:22.327Z,8.00
2022-07-30T22:03:04.480Z,8.30
2022-07-30T22:06:06.753Z,7.60
2022-07-30T22:08:54.691Z,8.20
2022-07-30T22:11:42.230Z,7.40
2022-07-30T22:14:25.688Z,7.90
2022-07-30T22:17:22.592Z,8.80
2022-07-30T22:20:08.580Z,8.00
2022-07-30T22:22:58.445Z,8.30
2022-07-30T22:25:44.162Z,8.00
2022-07-30T22:28:26.975Z,8.00
2022-07-30T22:31:14.228Z,8.00
2022-07-30T22:33:57.833Z,7.80
2022-07-30T22:36:39.728Z,8.20
2022-07-30T22:39:22.033Z,7.60
2022-07-30T22:42:04.580Z,8.10
2022-07-30T22:44:55.407Z,8.90
2022-07-30T22:47:53.948Z,8.30
2022-07-30T22:50:36.547Z,7.70
2022-07-30T22:54:10.417Z,8.60
2022-07-30T22:56:25.539Z,8.40
2022-07-30T22:59:07.425Z,8.50
2022-07-30T23:01:49.319Z,9.40
2022-07-30T23:04:31.318Z,8.80
2022-07-30T23:07:19.097Z,9.20
2022-07-30T23:10:01.766Z,8.80
2022-07-30T23:12:32.423Z,7.90
2022-07-30T23:12:45.413Z,8.70
2022-07-30T23:15:27.504Z,9.10
2022-07-30T23:18:09.397Z,9.40
2022-07-30T23:20:51.293Z,8.40
2022-07-30T23:23:34.129Z,9.10
2022-07-30T23:26:16.519Z,8.80
2022-07-30T23:28:59.540Z,9.00
2022-07-30T23:31:41.436Z,8.50
2022-07-30T23:34:24.150Z,9.60
2022-07-30T23:37:06.199Z,11.20
2022-07-30T23:39:48.659Z,9.90
2022-07-30T23:42:30.658Z,9.90
2022-07-30T23:45:12.558Z,10.90
2022-07-30T23:48:01.582Z,11.20
2022-07-30T23:50:44.980Z,11.50
2022-07-30T23:53:26.943Z,10.80
2022-07-30T23:56:14.557Z,10.90
2022-07-30T23:58:56.505Z,10.30
